Onancock, Virginia
Current Conditions -  °F | °C
As of 6:15 AM on Friday 28 Nov 2014 (Local Time) from KMFV Reporting Station
Broken Clouds Broken Clouds  
Wind Chill: 27°   Ceiling: 3300
Heat Index: 36°   Visibility: 10mi
Dew Point: 25°   Wind: 14mph
Humidity: 65%   Direction: 310°NW
Pressure: 30.24"   Gusts: 21mph
Location:  37.71°N, 75.75°W
Report Text: KMFV 281115Z AUTO 31012G18KT 300V360 10SM BKN033 02/M04 A3024 RMK AO2
Loading
Personal Weather Stations






























Interactive Weather Map New forecast layout! Learn more

10-Day Weather Forecast

Advertisements
Track Severe Weather on mobile